Station Historical Data
Daily Summary for April 12, 2017 Units:  Metric    English   Both
« Previous Day
Next Day »
Daily Weekly Monthly Yearly Custom
  High: Low: Average:
Temperature: 27.6 °C 16 °C 20.7 °C
Dew Point: 15.1 °C 10.1 °C 12.6 °C
Humidity: 84% 35% 62%
Wind Speed: 1.6km/h 0km/h 0.2km/h
Wind Gust: 8km/h - -
Wind- - SE
Pressure: 1024.9 hPa 1021.9 hPa -
Precipitation: 0 mm    
Historical Graphs
 
 
Tabular Data for April 12, 2017
Time Temperature Dew Point Pressure Wind Wind Speed Wind Gust Humidity Rainfall Rate (Hourly) Conditions
00:00 18.2 °C 10.8 °C 1023.2 hPa Calm     62% 0 mm CLR
00:15 17.8 °C 10.7 °C 1023.2 hPa Calm     63% 0 mm CLR
00:30 17.7 °C 10.8 °C 1023.2 hPa Calm     64% 0 mm CLR
00:45 17.4 °C 11 °C 1023.2 hPa Calm     66% 0 mm CLR
01:00 17 °C 11.3 °C 1023.2 hPa Calm     69% 0 mm CLR
01:15 16.9 °C 11.4 °C 1023.2 hPa Calm     70% 0 mm CLR
01:30 16.8 °C 11.4 °C 1022.9 hPa Calm     71% 0 mm CLR
01:45 16.7 °C 11.4 °C 1022.9 hPa Calm     71% 0 mm CLR
02:00 16.6 °C 11.3 °C 1022.6 hPa Calm     71% 0 mm CLR
02:15 16.7 °C 11.2 °C 1022.6 hPa Calm     70% 0 mm CLR
02:30 16.4 °C 11.8 °C 1022.6 hPa Calm     74% 0 mm CLR
02:45 16 °C 11.8 °C 1022.6 hPa Calm     76% 0 mm CLR
03:00 16.3 °C 12.1 °C 1022.6 hPa Calm   1.6 km/h 76% 0 mm CLR
03:15 16.6 °C 12.3 °C 1022.2 hPa Calm   1.6 km/h 76% 0 mm CLR
04:00 17.3 °C 12.7 °C 1022.2 hPa Calm     74% 0 mm CLR
04:15 17.7 °C 13 °C 1022.2 hPa Calm   1.6 km/h 74% 0 mm CLR
04:30 17.7 °C 13 °C 1021.9 hPa Calm     74% 0 mm CLR
04:45 17.7 °C 13 °C 1021.9 hPa Calm     74% 0 mm CLR
05:00 17.7 °C 13 °C 1021.9 hPa Calm     74% 0 mm CLR
05:15 17.7 °C 13 °C 1021.9 hPa Calm     74% 0 mm CLR
05:30 17.7 °C 13 °C 1022.2 hPa Calm     74% 0 mm CLR
05:45 17.7 °C 13 °C 1022.2 hPa Calm     74% 0 mm CLR
06:00 17.7 °C 13 °C 1022.2 hPa Calm     74% 0 mm CLR
06:15 17.7 °C 13 °C 1022.2 hPa Calm     74% 0 mm CLR
06:30 17.7 °C 13 °C 1022.2 hPa Calm     74% 0 mm CLR
06:45 17.7 °C 13 °C 1022.6 hPa Calm     74% 0 mm CLR
07:00 17.7 °C 13 °C 1022.6 hPa Calm     74% 0 mm CLR
07:15 17.7 °C 13 °C 1022.9 hPa Calm     74% 0 mm CLR
07:30 17.7 °C 13 °C 1023.2 hPa Calm     74% 0 mm CLR
07:45 17.7 °C 13 °C 1023.2 hPa Calm     74% 0 mm CLR
08:00 17.7 °C 13 °C 1023.6 hPa Calm     74% 0 mm CLR
08:15 17.7 °C 13 °C 1023.6 hPa Calm     74% 0 mm CLR
08:30 17.7 °C 13 °C 1023.9 hPa Calm     74% 0 mm CLR
08:45 16.4 °C 13.7 °C 1023.9 hPa Calm     84% 0 mm CLR
09:00 17.2 °C 14.5 °C 1023.9 hPa Calm     84% 0 mm CLR
09:15 17.9 °C 14.4 °C 1023.9 hPa Calm     80% 0 mm CLR
09:30 18.4 °C 14.3 °C 1024.3 hPa Calm   3.2 km/h 77% 0 mm CLR
09:45 18.4 °C 14.6 °C 1024.6 hPa Calm   1.6 km/h 78% 0 mm CLR
10:00 19 °C 14.7 °C 1024.6 hPa Calm   1.6 km/h 76% 0 mm CLR
10:15 19.8 °C 14.6 °C 1024.6 hPa Calm   8 km/h 72% 0 mm CLR
10:30 20.9 °C 15.1 °C 1024.6 hPa Calm   3.2 km/h 69% 0 mm CLR
10:45 21.6 °C 14.3 °C 1024.6 hPa Calm   1.6 km/h 63% 0 mm CLR
11:00 21.7 °C 14.6 °C 1024.9 hPa Calm   3.2 km/h 64% 0 mm CLR
11:15 21.9 °C 15 °C 1024.9 hPa Calm   3.2 km/h 65% 0 mm CLR
11:30 22.8 °C 14.6 °C 1024.9 hPa WSW 1.6 km/h 3.2 km/h 60% 0 mm CLR
11:45 23.1 °C 14.9 °C 1024.9 hPa Calm   4.8 km/h 60% 0 mm CLR
12:00 23.4 °C 14.4 °C 1024.9 hPa Calm   1.6 km/h 57% 0 mm CLR
12:15 24.8 °C 13.9 °C 1024.6 hPa SSE 1.6 km/h 3.2 km/h 51% 0 mm CLR
12:30 25.4 °C 13.7 °C 1024.6 hPa Calm   3.2 km/h 48% 0 mm CLR
12:45 26.1 °C 13.2 °C 1024.6 hPa East 1.6 km/h 4.8 km/h 45% 0 mm CLR
13:00 26.8 °C 14.5 °C 1024.3 hPa Calm   4.8 km/h 47% 0 mm CLR
13:15 27 °C 13.7 °C 1024.3 hPa Calm   8 km/h 44% 0 mm CLR
13:30 27.5 °C 13.1 °C 1023.9 hPa Calm   4.8 km/h 41% 0 mm CLR
13:45 27.6 °C 12.7 °C 1023.9 hPa Calm   4.8 km/h 40% 0 mm CLR
14:00 27.5 °C 10.7 °C 1023.9 hPa Calm   8 km/h 35% 0 mm CLR
14:15 27.3 °C 10.9 °C 1023.9 hPa East 1.6 km/h 4.8 km/h 36% 0 mm CLR
14:30 27.4 °C 11.4 °C 1023.6 hPa Calm   8 km/h 37% 0 mm CLR
14:45 26.8 °C 11.3 °C 1023.6 hPa East 1.6 km/h 8 km/h 38% 0 mm CLR
15:00 26.4 °C 12.1 °C 1023.6 hPa Calm   8 km/h 41% 0 mm CLR
15:15 26.3 °C 12 °C 1023.2 hPa Calm   3.2 km/h 41% 0 mm CLR
15:30 26.6 °C 11.8 °C 1023.2 hPa Calm   3.2 km/h 40% 0 mm CLR
15:45 26.3 °C 11.2 °C 1023.2 hPa SE 1.6 km/h 4.8 km/h 39% 0 mm CLR
16:00 26.8 °C 11.7 °C 1022.9 hPa Calm   4.8 km/h 39% 0 mm CLR
16:15 26.3 °C 10.1 °C 1022.9 hPa Calm   4.8 km/h 36% 0 mm CLR
16:30 26.6 °C 10.7 °C 1022.9 hPa Calm   3.2 km/h 37% 0 mm CLR
17:00 26.9 °C 10.1 °C 1022.6 hPa Calm   4.8 km/h 35% 0 mm CLR
17:15 26.7 °C 10.4 °C 1022.6 hPa Calm   3.2 km/h 36% 0 mm CLR
17:30 25.9 °C 11.3 °C 1022.9 hPa Calm   8 km/h 40% 0 mm CLR
17:45 24.4 °C 11.8 °C 1022.6 hPa Calm   4.8 km/h 45% 0 mm CLR
18:00 23.3 °C 12.9 °C 1022.9 hPa Calm   1.6 km/h 52% 0 mm CLR
18:15 22.6 °C 12.8 °C 1022.9 hPa Calm   1.6 km/h 54% 0 mm CLR
18:30 22.5 °C 13 °C 1022.9 hPa Calm     55% 0 mm CLR
18:45 22.6 °C 13.3 °C 1022.9 hPa Calm     56% 0 mm CLR
19:00 22.6 °C 12.6 °C 1022.9 hPa Calm     53% 0 mm CLR
19:15 22.7 °C 12.7 °C 1022.9 hPa Calm     53% 0 mm CLR
19:30 22.7 °C 12.6 °C 1022.9 hPa Calm     53% 0 mm CLR
19:45 22.4 °C 12.3 °C 1023.2 hPa Calm     53% 0 mm CLR
20:00 22 °C 12 °C 1023.2 hPa Calm     53% 0 mm CLR
20:15 21.6 °C 11.8 °C 1023.2 hPa Calm     54% 0 mm CLR
20:30 21.1 °C 11.9 °C 1023.6 hPa Calm     56% 0 mm CLR
20:45 20.7 °C 12.4 °C 1023.6 hPa Calm     59% 0 mm CLR
21:00 20.1 °C 12.3 °C 1023.6 hPa Calm     61% 0 mm CLR
21:15 19.7 °C 12.5 °C 1023.6 hPa Calm     63% 0 mm CLR
21:30 19.3 °C 12.3 °C 1023.9 hPa Calm     64% 0 mm CLR
21:45 18.9 °C 12.7 °C 1023.9 hPa Calm     67% 0 mm CLR
22:00 18.7 °C 12.6 °C 1023.9 hPa Calm     68% 0 mm CLR
22:15 18.3 °C 12.8 °C 1024.3 hPa Calm     70% 0 mm CLR
22:30 17.8 °C 12.7 °C 1024.3 hPa Calm     72% 0 mm CLR
22:45 17.6 °C 12.7 °C 1024.3 hPa Calm     73% 0 mm CLR
23:00 17.3 °C 12.8 °C 1024.3 hPa Calm     75% 0 mm CLR
23:15 17 °C 12.7 °C 1024.3 hPa Calm     76% 0 mm CLR
23:30 16.9 °C 12.8 °C 1024.3 hPa Calm     77% 0 mm CLR
23:45 16.4 °C 12.6 °C 1024.3 hPa Calm     78% 0 mm CLR
Piedmont Bend
Compliments of Weather Underground - 4 mb